Amapa Airport


Codes: SBAM/0
Name: Amapa Airport
City: Amapa
Country: Brazil
Elevation: 45 ft.

Photos at Amapa Airport


   Photos courtesy of SpottingLog. You can add your own sightings and photos by signing up for a free trial today.



No photos found.

Weather at Amapa Airport


Time (UTC)DescriptionTempratureWindCloud coverageVisibilityPressureHumidity
16-Jun-2024 09:00Scattered Clouds22°C0 mph, NE31%10000m1013hPa100%
16-Jun-2024 12:00Light Rain24°C2 mph, E29%10000m1013hPa94%
16-Jun-2024 15:00Light Rain28°C4 mph, E38%10000m1013hPa70%
16-Jun-2024 18:00Light Rain32°C7 mph, E31%10000m1010hPa51%
16-Jun-2024 21:00Light Rain27°C4 mph, E12%10000m1011hPa81%
17-Jun-2024 00:00Light Rain24°C2 mph, E13%10000m1013hPa95%
17-Jun-2024 03:00Clear Sky23°C2 mph, SE2%10000m1013hPa97%
17-Jun-2024 06:00Clear Sky23°C2 mph, SE1%10000m1011hPa98%
17-Jun-2024 09:00Light Rain22°C2 mph, S5%10000m1011hPa99%
17-Jun-2024 12:00Light Rain27°C2 mph, S12%10000m1012hPa86%
17-Jun-2024 15:00Light Rain31°C4 mph, S4%10000m1011hPa57%
17-Jun-2024 18:00Light Rain32°C7 mph, E4%10000m1009hPa52%
17-Jun-2024 21:00Light Rain27°C4 mph, E12%10000m1009hPa81%
18-Jun-2024 00:00Light Rain24°C2 mph, E14%10000m1012hPa94%
18-Jun-2024 03:00Light Rain23°C2 mph, E21%10000m1012hPa99%
18-Jun-2024 06:00Light Rain23°C2 mph, E25%10000m1010hPa99%
18-Jun-2024 09:00Light Rain23°C2 mph, SE73%10000m1011hPa98%
18-Jun-2024 12:00Light Rain26°C2 mph, E62%10000m1012hPa88%
18-Jun-2024 15:00Light Rain32°C7 mph, E10%10000m1012hPa51%
18-Jun-2024 18:00Few Clouds31°C7 mph, E13%10000m1009hPa53%
18-Jun-2024 21:00Light Rain26°C4 mph, E16%10000m1009hPa81%
19-Jun-2024 00:00Light Rain23°C2 mph, E21%10000m1012hPa95%
19-Jun-2024 03:00Moderate Rain23°C2 mph, SE16%10000m1012hPa100%
19-Jun-2024 06:00Moderate Rain22°C2 mph, SE23%10000m1010hPa100%
19-Jun-2024 09:00Light Rain22°C2 mph, SE25%10000m1011hPa100%
19-Jun-2024 12:00Light Rain27°C4 mph, E23%10000m1013hPa91%
19-Jun-2024 15:00Light Rain29°C7 mph, E12%10000m1012hPa70%
19-Jun-2024 18:00Light Rain30°C7 mph, E17%10000m1009hPa62%
19-Jun-2024 21:00Light Rain26°C4 mph, NE6%10000m1009hPa90%
20-Jun-2024 00:00Light Rain24°C2 mph, E43%10000m1011hPa97%
20-Jun-2024 03:00Light Rain23°C2 mph, E28%10000m1012hPa99%
20-Jun-2024 06:00Light Rain23°C2 mph, SE26%10000m1010hPa98%
20-Jun-2024 09:00Light Rain23°C2 mph, SE30%10000m1011hPa99%
20-Jun-2024 12:00Moderate Rain27°C4 mph, E42%10000m1012hPa92%
20-Jun-2024 15:00Light Rain29°C7 mph, E88%10000m1012hPa79%
20-Jun-2024 18:00Light Rain29°C7 mph, E91%10000m1010hPa75%
20-Jun-2024 21:00Light Rain25°C4 mph, E100%10000m1010hPa92%
21-Jun-2024 00:00Moderate Rain23°C2 mph, E98%10000m1012hPa99%
21-Jun-2024 03:00Light Rain23°C2 mph, SE53%10000m1012hPa100%
21-Jun-2024 06:00Light Rain23°C2 mph, S65%10000m1010hPa100%